Sloman Herakles — V2FY4 — position and weather

sailwx.info

Track history (hours):
 
Tides and Currents Weather Stations Pressure Air Temp Water Temp Dewpoint Dewpoint Depression Visibility Wind Speed Wind Dir Waves Ship Positions

Sloman Herakles

Last reported at 2017-Apr-27 01:47 UTC. Time now 2017-Apr-27 18:48 UTC.
Position N 39°18' W 009°57'.

Length 145 m; draft 9.2 m.

Type: Tanker. MMSI: 305851000.

Date/timePositionNaut miles runAvg speedWind from/ knotsBaromVisibWave heightAir tempDewpointWater temp
2017-Apr-27 01:47N 39°18' W 009°57'2 7.5
2017-Apr-27 01:28N 39°16' W 009°57'3 7.6
2017-Apr-27 01:00N 39°12' W 009°57'4 7.8
2017-Apr-27 00:31N 39°08' W 009°57'4 7.5
2017-Apr-27 00:00N 39°04' W 009°57'4 7.5
2017-Apr-26 23:30N 39°01' W 009°57'4 8.2
2017-Apr-26 23:00N 38°57' W 009°57'4 8.4
2017-Apr-26 22:30N 38°52' W 009°57'4 8.9
2017-Apr-26 22:00N 38°48' W 009°57'5 9.0
2017-Apr-26 21:30N 38°43' W 009°57'5 9.3
2017-Apr-26 21:00N 38°39' W 009°56'5 9.1
2017-Apr-26 20:30N 38°34' W 009°55'5 9.5
2017-Apr-26 20:01N 38°30' W 009°53'5 9.6
2017-Apr-26 19:30N 38°25' W 009°52'510.0
2017-Apr-26 19:00N 38°20' W 009°51'24410.2
2017-Apr-25 19:03N 35°58' W 005°42'2 9.6
2017-Apr-25 18:49N 35°58' W 005°39'3 8.8
2017-Apr-25 18:31N 35°58' W 005°36'5 9.1
2017-Apr-25 18:00N 35°59' W 005°30'4 9.0
2017-Apr-25 17:31N 35°60' W 005°25'510.1
2017-Apr-25 17:00N 36°01' W 005°19'510.2
2017-Apr-25 16:30N 36°03' W 005°13'15611.8
2017-Apr-25 03:16N 36°33' W 002°03'312.4
2017-Apr-25 03:00N 36°36' W 002°00'1012.4
2017-Apr-25 02:14N 36°43' W 001°53'512.1
2017-Apr-25 01:49N 36°47' W 001°49'  
2017-Apr-21 16:43N 36°03' W 004°53'5 5.4
2017-Apr-21 15:44N 36°02' W 004°59'5 5.5
2017-Apr-21 14:51N 36°02' W 005°05'3 5.5
2017-Apr-21 14:21N 36°01' W 005°09'5 5.4
2017-Apr-21 13:29N 36°00' W 005°14'2 5.1
2017-Apr-21 13:00N 35°60' W 005°17'3 5.6
2017-Apr-21 12:30N 35°59' W 005°21'3 5.7
2017-Apr-21 12:01N 35°58' W 005°24'3 5.2
2017-Apr-21 11:31N 35°58' W 005°27'3 5.9
2017-Apr-21 11:00N 35°56' W 005°30'3 6.3
2017-Apr-21 10:29N 35°55' W 005°34'3 6.0
2017-Apr-21 09:55N 35°54' W 005°38'162 4.5
2017-Apr-19 21:47N 36°28' W 008°54'311.5
2017-Apr-19 21:30N 36°29' W 008°58'2611.6
2017-Apr-19 19:17N 36°42' W 009°26'412.3
2017-Apr-19 18:58N 36°44' W 009°29'612.4
2017-Apr-19 18:31N 36°49' W 009°33'612.5
2017-Apr-19 18:01N 36°55' W 009°35'812.4
2017-Apr-19 17:22N 37°03' W 009°38'512.8
2017-Apr-19 16:57N 37°08' W 009°40'612.8
2017-Apr-19 16:28N 37°14' W 009°42'1712.4
2017-Apr-19 15:05N 37°31' W 009°46'2912.2
2017-Apr-19 12:42N 37°59' W 009°54'312.4
2017-Apr-19 12:29N 38°02' W 009°55'912.2
2017-Apr-19 11:45N 38°10' W 009°58'512.3
2017-Apr-19 11:22N 38°15' W 009°59'412.4
2017-Apr-19 11:00N 38°19' W 010°01'612.2
2017-Apr-19 10:30N 38°25' W 010°03'612.6
2017-Apr-19 10:00N 38°31' W 010°04'612.4
2017-Apr-19 09:30N 38°37' W 010°06'612.9
2017-Apr-19 09:01N 38°44' W 010°07'713.1
2017-Apr-19 08:30N 38°50' W 010°07'713.4
2017-Apr-19 08:01N 38°57' W 010°06'713.2
2017-Apr-19 07:30N 39°04' W 010°06'713.4
2017-Apr-19 07:01N 39°10' W 010°07'713.5
2017-Apr-19 06:30N 39°17' W 010°07'713.7
2017-Apr-19 06:00N 39°24' W 010°07'713.7
2017-Apr-19 05:31N 39°31' W 010°07'49512.9
2017-Apr-17 14:58N 47°27' W 006°58'7014.0
2017-Apr-17 09:58N 48°28' W 006°08'613.6
2017-Apr-17 09:30N 48°34' W 006°03'713.4
2017-Apr-17 08:59N 48°40' W 005°58'1413.0
2017-Apr-17 07:52N 48°53' W 005°48'  
Track history (hours):
 
Tides and Currents Weather Stations Pressure Air Temp Water Temp Dewpoint Dewpoint Depression Visibility Wind Speed Wind Dir Waves Ship Positions

Sloman Herakles

Last reported at 2017-Apr-27 01:47 UTC. Time now 2017-Apr-27 18:48 UTC.
Position N 39°18' W 009°57'.

Length 145 m; draft 9.2 m.

Type: Tanker. MMSI: 305851000.

Date/timePositionNaut miles runAvg speedWind from/ knotsBaromVisibWave heightAir tempDewpointWater temp
2017-Apr-27 01:47N 39°18' W 009°57'2 7.5
2017-Apr-27 01:28N 39°16' W 009°57'3 7.6
2017-Apr-27 01:00N 39°12' W 009°57'4 7.8
2017-Apr-27 00:31N 39°08' W 009°57'4 7.5
2017-Apr-27 00:00N 39°04' W 009°57'4 7.5
2017-Apr-26 23:30N 39°01' W 009°57'4 8.2
2017-Apr-26 23:00N 38°57' W 009°57'4 8.4
2017-Apr-26 22:30N 38°52' W 009°57'4 8.9
2017-Apr-26 22:00N 38°48' W 009°57'5 9.0
2017-Apr-26 21:30N 38°43' W 009°57'5 9.3
2017-Apr-26 21:00N 38°39' W 009°56'5 9.1
2017-Apr-26 20:30N 38°34' W 009°55'5 9.5
2017-Apr-26 20:01N 38°30' W 009°53'5 9.6
2017-Apr-26 19:30N 38°25' W 009°52'510.0
2017-Apr-26 19:00N 38°20' W 009°51'24410.2
2017-Apr-25 19:03N 35°58' W 005°42'2 9.6
2017-Apr-25 18:49N 35°58' W 005°39'3 8.8
2017-Apr-25 18:31N 35°58' W 005°36'5 9.1
2017-Apr-25 18:00N 35°59' W 005°30'4 9.0
2017-Apr-25 17:31N 35°60' W 005°25'510.1
2017-Apr-25 17:00N 36°01' W 005°19'510.2
2017-Apr-25 16:30N 36°03' W 005°13'15611.8
2017-Apr-25 03:16N 36°33' W 002°03'312.4
2017-Apr-25 03:00N 36°36' W 002°00'1012.4
2017-Apr-25 02:14N 36°43' W 001°53'512.1
2017-Apr-25 01:49N 36°47' W 001°49'  
2017-Apr-21 16:43N 36°03' W 004°53'5 5.4
2017-Apr-21 15:44N 36°02' W 004°59'5 5.5
2017-Apr-21 14:51N 36°02' W 005°05'3 5.5
2017-Apr-21 14:21N 36°01' W 005°09'5 5.4
2017-Apr-21 13:29N 36°00' W 005°14'2 5.1
2017-Apr-21 13:00N 35°60' W 005°17'3 5.6
2017-Apr-21 12:30N 35°59' W 005°21'3 5.7
2017-Apr-21 12:01N 35°58' W 005°24'3 5.2
2017-Apr-21 11:31N 35°58' W 005°27'3 5.9
2017-Apr-21 11:00N 35°56' W 005°30'3 6.3
2017-Apr-21 10:29N 35°55' W 005°34'3 6.0
2017-Apr-21 09:55N 35°54' W 005°38'162 4.5
2017-Apr-19 21:47N 36°28' W 008°54'311.5
2017-Apr-19 21:30N 36°29' W 008°58'2611.6
2017-Apr-19 19:17N 36°42' W 009°26'412.3
2017-Apr-19 18:58N 36°44' W 009°29'612.4
2017-Apr-19 18:31N 36°49' W 009°33'612.5
2017-Apr-19 18:01N 36°55' W 009°35'812.4
2017-Apr-19 17:22N 37°03' W 009°38'512.8
2017-Apr-19 16:57N 37°08' W 009°40'612.8
2017-Apr-19 16:28N 37°14' W 009°42'1712.4
2017-Apr-19 15:05N 37°31' W 009°46'2912.2
2017-Apr-19 12:42N 37°59' W 009°54'312.4
2017-Apr-19 12:29N 38°02' W 009°55'912.2
2017-Apr-19 11:45N 38°10' W 009°58'512.3
2017-Apr-19 11:22N 38°15' W 009°59'412.4
2017-Apr-19 11:00N 38°19' W 010°01'612.2
2017-Apr-19 10:30N 38°25' W 010°03'612.6
2017-Apr-19 10:00N 38°31' W 010°04'612.4
2017-Apr-19 09:30N 38°37' W 010°06'612.9
2017-Apr-19 09:01N 38°44' W 010°07'713.1
2017-Apr-19 08:30N 38°50' W 010°07'713.4
2017-Apr-19 08:01N 38°57' W 010°06'713.2
2017-Apr-19 07:30N 39°04' W 010°06'713.4
2017-Apr-19 07:01N 39°10' W 010°07'713.5
2017-Apr-19 06:30N 39°17' W 010°07'713.7
2017-Apr-19 06:00N 39°24' W 010°07'713.7
2017-Apr-19 05:31N 39°31' W 010°07'49512.9
2017-Apr-17 14:58N 47°27' W 006°58'7014.0
2017-Apr-17 09:58N 48°28' W 006°08'613.6
2017-Apr-17 09:30N 48°34' W 006°03'713.4
2017-Apr-17 08:59N 48°40' W 005°58'1413.0
2017-Apr-17 07:52N 48°53' W 005°48'  

Dump ship's entire track history